Accueil
METAR-TAF:

METAR-TAF

Aéroports :

Cherbourg, France

Aéroport de Cherbourg - Maupertus

latitude: 49-39N, longitude: 001-28W, altitude: 138 m

Observation

Le bulletin a été fait il y a 12 minutes, à 00:00 UTC
Vent 6 kt de est/sud-est
Température 15°C
Humidité 59%
Pression 1022 hPa
Visibilité 10 km ou plus
pas de nuages en-dessous de 1500 mètres et pas de cumulonimbus.

METAR: LFRC 210000Z AUTO 11006KT CAVOK 15/07 Q1022

Heure: 02:12 (00:12 UTC)

Prévision

Le bulletin a été fait il y a 10 heures et 12 minutes, à 14:00 UTC
Prévision valable du 20 à 15 UTC au 20 à 24 UTC
Vent 7 kt de nord-est
Visibilité 10 km ou plus
pas de nuages en-dessous de 1500 mètres et pas de cumulonimbus.
Evoluant progressivement
du 20 à 18 UTC au 20 à 21 UTC
Vent 3 kt de direction variable

TAF: LFRC 201400Z 2015/2024 05007KT CAVOK BECMG 2018/2021 VRB03KT

Observations et prévisions météorologiques de plus de 4000 aéroports (messages METAR et TAF).

Les stations disponibles sont représentées par des disques jaunes et rouges sur la carte.

Passer la souris dessus pour voir le nom de la station.

Cliquer dessus pour voir les observations et prévisions météorologiques.

Pour changer de carte: cliquez sur les boutons verts avec une croix noire pour zoomer, sur le bouton vert avec un tiret pour effectuer un zoom arrière, ou sur les flèches vertes pour les cartes adjacentes.


METAR-TAF: